createdAt,value
2019-03-04T00:00:14.616Z,4.00
2019-03-04T00:01:14.590Z,3.50
2019-03-04T00:02:14.568Z,8.00
2019-03-04T00:03:14.555Z,3.20
2019-03-04T00:04:14.555Z,6.20
2019-03-04T00:05:14.558Z,5.50
2019-03-04T00:06:14.522Z,5.20
2019-03-04T00:07:14.517Z,4.70
2019-03-04T00:08:14.524Z,5.20
2019-03-04T00:09:14.490Z,4.50
2019-03-04T00:10:14.531Z,3.90
2019-03-04T00:11:14.465Z,4.40
2019-03-04T00:12:14.455Z,4.50
2019-03-04T00:13:14.444Z,5.00
2019-03-04T00:14:14.431Z,4.30
2019-03-04T00:15:14.446Z,5.20
2019-03-04T00:16:14.418Z,4.40
2019-03-04T00:17:14.409Z,3.10
2019-03-04T00:18:14.394Z,6.40
2019-03-04T00:19:14.377Z,7.80
2019-03-04T00:20:14.397Z,5.50
2019-03-04T00:21:14.360Z,4.40
2019-03-04T00:22:14.354Z,3.40
2019-03-04T00:23:14.333Z,5.60
2019-03-04T00:24:14.320Z,7.00
2019-03-04T00:25:14.350Z,4.80
2019-03-04T00:26:14.316Z,7.40
2019-03-04T00:27:14.289Z,5.60
2019-03-04T00:28:14.277Z,4.70
2019-03-04T00:29:14.269Z,4.40
2019-03-04T00:30:14.288Z,5.50
2019-03-04T00:31:14.240Z,3.90
2019-03-04T00:32:14.230Z,7.70
2019-03-04T00:33:14.236Z,4.70
2019-03-04T00:34:14.205Z,4.90
2019-03-04T00:35:14.222Z,3.60
2019-03-04T00:36:14.184Z,4.90
2019-03-04T00:37:14.172Z,5.40
2019-03-04T00:38:14.174Z,4.20
2019-03-04T00:39:14.150Z,4.80
2019-03-04T00:40:14.150Z,6.20
2019-03-04T00:41:14.152Z,3.00
2019-03-04T00:42:14.121Z,5.30
2019-03-04T00:43:14.105Z,4.20
2019-03-04T00:44:14.101Z,6.20
2019-03-04T00:45:14.082Z,4.50
2019-03-04T00:46:14.096Z,5.20
2019-03-04T00:47:14.059Z,4.70
2019-03-04T00:48:14.061Z,5.40
2019-03-04T00:49:14.038Z,3.60
2019-03-04T00:50:14.038Z,4.50
2019-03-04T00:51:14.042Z,4.40
2019-03-04T00:52:14.006Z,4.90
2019-03-04T00:53:13.991Z,5.70
2019-03-04T00:54:13.983Z,3.70
2019-03-04T00:55:13.967Z,5.60
2019-03-04T00:56:13.983Z,5.20
2019-03-04T00:57:13.945Z,5.50
2019-03-04T00:58:13.938Z,4.00
2019-03-04T00:59:13.938Z,3.80
2019-03-04T01:00:13.929Z,3.50
2019-03-04T01:01:13.944Z,3.90
2019-03-04T01:02:13.940Z,3.50
2019-03-04T01:03:13.880Z,3.00
2019-03-04T01:04:13.868Z,4.40
2019-03-04T01:05:13.854Z,3.30
2019-03-04T01:06:13.874Z,3.50
2019-03-04T01:07:13.835Z,2.10
2019-03-04T01:08:13.876Z,2.20
2019-03-04T01:09:13.812Z,2.40
2019-03-04T01:10:13.804Z,2.70
2019-03-04T01:11:13.813Z,3.50
2019-03-04T01:12:13.777Z,2.50
2019-03-04T01:13:13.769Z,3.50
2019-03-04T01:14:13.754Z,2.60
2019-03-04T01:15:13.742Z,3.10
2019-03-04T01:16:13.760Z,2.70
2019-03-04T01:17:13.755Z,2.60
2019-03-04T01:18:13.708Z,2.80
2019-03-04T01:19:13.697Z,2.80
2019-03-04T01:20:13.686Z,3.40
2019-03-04T01:21:13.700Z,2.10
2019-03-04T01:22:13.665Z,3.20
2019-03-04T01:23:13.651Z,3.30
2019-03-04T01:24:13.672Z,2.70
2019-03-04T01:25:13.630Z,2.20
2019-03-04T01:26:13.628Z,3.20
2019-03-04T01:27:13.633Z,2.70
2019-03-04T01:28:13.599Z,2.70
2019-03-04T01:29:13.585Z,2.50
2019-03-04T01:30:13.579Z,3.30
2019-03-04T01:31:13.564Z,2.80
2019-03-04T01:32:13.577Z,2.70
2019-03-04T01:33:13.541Z,3.30
2019-03-04T01:34:13.557Z,2.30
2019-03-04T01:35:13.518Z,3.00
2019-03-04T01:36:13.505Z,3.60
2019-03-04T01:37:13.517Z,2.30
2019-03-04T01:38:13.483Z,2.10
2019-03-04T01:39:13.470Z,1.90
2019-03-04T01:40:13.462Z,2.40
2019-03-04T01:41:13.489Z,1.70
2019-03-04T01:42:13.463Z,2.10
2019-03-04T01:43:13.424Z,1.90
2019-03-04T01:44:13.416Z,1.80
2019-03-04T01:45:13.406Z,3.60
2019-03-04T01:46:13.391Z,2.00
2019-03-04T01:47:13.422Z,1.70
2019-03-04T01:48:13.375Z,2.80
2019-03-04T01:49:13.358Z,3.10
2019-03-04T01:50:13.347Z,1.50
2019-03-04T01:51:13.337Z,2.20
2019-03-04T01:52:13.350Z,1.90
2019-03-04T01:53:13.337Z,2.20
2019-03-04T01:54:13.298Z,1.60
2019-03-04T01:55:13.294Z,2.20
2019-03-04T01:56:13.278Z,1.70
2019-03-04T01:57:13.293Z,1.90
2019-03-04T01:58:13.282Z,1.60
2019-03-04T01:59:13.247Z,0.90
2019-03-04T02:00:13.241Z,0.90
2019-03-04T02:01:13.228Z,1.70
2019-03-04T02:02:13.241Z,3.00
2019-03-04T02:03:13.217Z,1.70
2019-03-04T02:04:13.193Z,1.50
2019-03-04T02:05:13.175Z,2.20
2019-03-04T02:06:13.167Z,2.60
2019-03-04T02:07:13.183Z,1.70
2019-03-04T02:08:13.142Z,0.70
2019-03-04T02:09:13.140Z,1.80
2019-03-04T02:10:13.144Z,1.80
2019-03-04T02:11:13.113Z,1.40
2019-03-04T02:12:13.143Z,1.20
2019-03-04T02:13:13.089Z,2.20
2019-03-04T02:14:13.087Z,0.90
2019-03-04T02:15:13.067Z,1.80
2019-03-04T02:16:13.054Z,3.00
2019-03-04T02:17:13.042Z,1.40
2019-03-04T02:18:13.058Z,1.10
2019-03-04T02:19:13.037Z,0.80
2019-03-04T02:20:13.004Z,1.60
2019-03-04T02:21:13.001Z,0.70
2019-03-04T02:22:12.987Z,1.60
2019-03-04T02:23:13.004Z,2.30
2019-03-04T02:24:12.965Z,1.70
2019-03-04T02:25:12.953Z,1.20
2019-03-04T02:26:12.938Z,1.40
2019-03-04T02:27:12.967Z,1.50
2019-03-04T02:28:12.943Z,1.60
2019-03-04T02:29:12.909Z,2.00
2019-03-04T02:30:12.893Z,1.00
2019-03-04T02:31:12.882Z,1.60
2019-03-04T02:32:12.870Z,1.40
2019-03-04T02:33:12.888Z,2.50
2019-03-04T02:34:12.848Z,3.60
2019-03-04T02:35:12.841Z,1.10
2019-03-04T02:36:12.855Z,2.00
2019-03-04T02:37:12.825Z,1.40
2019-03-04T02:38:12.895Z,1.30
2019-03-04T02:39:12.797Z,1.20
2019-03-04T02:40:12.781Z,1.90
2019-03-04T02:41:12.773Z,1.40
2019-03-04T02:42:12.761Z,2.10
2019-03-04T02:43:12.850Z,2.20
2019-03-04T02:44:12.740Z,3.10
2019-03-04T02:45:12.728Z,1.70
2019-03-04T02:46:12.719Z,2.40
2019-03-04T02:47:12.705Z,3.10
2019-03-04T02:48:12.719Z,1.80
2019-03-04T02:49:12.683Z,2.10
2019-03-04T02:50:12.669Z,2.20
2019-03-04T02:51:12.655Z,1.60
2019-03-04T02:52:12.654Z,2.20
2019-03-04T02:53:12.663Z,1.70
2019-03-04T02:54:12.621Z,1.70
2019-03-04T02:55:12.634Z,1.90
2019-03-04T02:56:12.599Z,1.40
2019-03-04T02:57:12.587Z,2.30
2019-03-04T02:58:12.577Z,1.60
2019-03-04T02:59:12.593Z,3.10
2019-03-04T03:00:12.555Z,1.20
2019-03-04T03:01:12.542Z,2.60
2019-03-04T03:02:12.558Z,1.90
2019-03-04T03:03:12.519Z,1.40
2019-03-04T03:04:12.544Z,1.30
2019-03-04T03:05:12.497Z,1.90
2019-03-04T03:06:12.486Z,1.90
2019-03-04T03:07:12.477Z,1.80
2019-03-04T03:08:12.464Z,3.00
2019-03-04T03:09:12.501Z,1.60
2019-03-04T03:10:12.444Z,1.40
2019-03-04T03:11:12.431Z,2.80
2019-03-04T03:12:12.421Z,2.20
2019-03-04T03:13:12.414Z,4.10
2019-03-04T03:14:12.421Z,1.90
2019-03-04T03:15:12.387Z,2.50
2019-03-04T03:16:12.380Z,2.30
2019-03-04T03:17:12.367Z,2.30
2019-03-04T03:18:12.353Z,1.90
2019-03-04T03:19:12.374Z,2.70
2019-03-04T03:20:12.330Z,2.90
2019-03-04T03:21:12.315Z,7.70
2019-03-04T03:22:12.349Z,4.40
2019-03-04T03:23:12.293Z,2.40
2019-03-04T03:24:12.308Z,2.40
2019-03-04T03:25:12.277Z,2.30
2019-03-04T03:26:12.260Z,1.60
2019-03-04T03:27:12.253Z,2.20
2019-03-04T03:28:12.240Z,3.10
2019-03-04T03:29:12.243Z,5.10
2019-03-04T03:30:12.240Z,3.60
2019-03-04T03:31:12.203Z,1.90
2019-03-04T03:32:12.195Z,1.50
2019-03-04T03:33:12.180Z,2.20
2019-03-04T03:34:12.175Z,1.80
2019-03-04T03:35:12.186Z,1.50
2019-03-04T03:36:12.151Z,2.10
2019-03-04T03:37:12.181Z,2.50
2019-03-04T03:38:12.124Z,1.70
2019-03-04T03:39:12.114Z,2.30
2019-03-04T03:40:12.128Z,2.40
2019-03-04T03:41:12.091Z,2.40
2019-03-04T03:42:12.081Z,1.90
2019-03-04T03:43:12.076Z,3.10
2019-03-04T03:44:12.054Z,1.30
2019-03-04T03:45:12.068Z,1.80
2019-03-04T03:46:12.033Z,2.20
2019-03-04T03:47:12.024Z,3.70
2019-03-04T03:48:12.010Z,3.30
2019-03-04T03:49:12.024Z,1.50
2019-03-04T03:50:12.014Z,3.80
2019-03-04T03:51:11.979Z,3.40
2019-03-04T03:52:11.962Z,1.60
2019-03-04T03:53:11.956Z,1.90
2019-03-04T03:54:11.945Z,2.00
2019-03-04T03:55:11.971Z,3.20
2019-03-04T03:56:11.924Z,2.10
2019-03-04T03:57:11.909Z,1.30
2019-03-04T03:58:11.901Z,1.70
2019-03-04T03:59:11.888Z,1.80
2019-03-04T04:00:11.904Z,1.80
2019-03-04T04:01:11.866Z,1.60
2019-03-04T04:02:11.853Z,1.90
2019-03-04T04:03:11.856Z,1.20
2019-03-04T04:04:11.833Z,2.00
2019-03-04T04:05:11.859Z,2.10
2019-03-04T04:06:11.837Z,3.00
2019-03-04T04:07:11.796Z,1.40
2019-03-04T04:08:11.786Z,1.30
2019-03-04T04:09:11.792Z,1.40
2019-03-04T04:10:11.824Z,2.30
2019-03-04T04:11:11.749Z,2.10
2019-03-04T04:12:11.747Z,2.00
2019-03-04T04:13:11.734Z,3.20
2019-03-04T04:14:11.724Z,1.40
2019-03-04T04:15:11.711Z,1.50
2019-03-04T04:16:11.746Z,2.40
2019-03-04T04:17:11.683Z,1.60
2019-03-04T04:18:11.741Z,1.50
2019-03-04T04:19:11.660Z,1.60
2019-03-04T04:20:11.651Z,3.20
2019-03-04T04:21:11.670Z,2.60
2019-03-04T04:22:11.641Z,2.40
2019-03-04T04:23:11.621Z,1.90
2019-03-04T04:24:11.608Z,3.40
2019-03-04T04:25:11.592Z,2.30
2019-03-04T04:26:11.609Z,2.70
2019-03-04T04:27:11.573Z,3.30
2019-03-04T04:28:11.559Z,2.30
2019-03-04T04:29:11.588Z,2.00
2019-03-04T04:30:11.542Z,1.90
2019-03-04T04:31:11.555Z,1.60
2019-03-04T04:32:11.544Z,1.80
2019-03-04T04:33:11.536Z,3.00
2019-03-04T04:34:11.489Z,2.60
2019-03-04T04:35:11.488Z,1.40
2019-03-04T04:36:11.469Z,1.70
2019-03-04T04:37:11.479Z,1.80
2019-03-04T04:38:11.450Z,3.00
2019-03-04T04:39:11.432Z,1.30
2019-03-04T04:40:11.427Z,2.30
2019-03-04T04:41:11.423Z,3.10
2019-03-04T04:42:11.451Z,2.30
2019-03-04T04:43:11.389Z,2.60
2019-03-04T04:44:11.376Z,2.00
2019-03-04T04:45:11.364Z,4.10
2019-03-04T04:46:11.354Z,3.00
2019-03-04T04:47:11.367Z,2.60
2019-03-04T04:48:11.348Z,2.20
2019-03-04T04:49:11.325Z,1.80
2019-03-04T04:50:11.317Z,5.40
2019-03-04T04:51:11.296Z,2.20
2019-03-04T04:52:11.322Z,2.40
2019-03-04T04:53:11.274Z,2.90
2019-03-04T04:54:11.263Z,1.90
2019-03-04T04:55:11.252Z,3.00
2019-03-04T04:56:11.245Z,2.70
2019-03-04T04:57:11.254Z,2.50
2019-03-04T04:58:11.237Z,1.60
2019-03-04T04:59:11.211Z,2.70
2019-03-04T05:00:11.197Z,3.40
2019-03-04T05:01:11.188Z,2.90
2019-03-04T05:02:11.201Z,2.10
2019-03-04T05:03:11.176Z,2.40
2019-03-04T05:04:11.148Z,3.00
2019-03-04T05:05:11.137Z,1.80
2019-03-04T05:06:13.032Z,4.60
2019-03-04T05:07:11.167Z,2.70
2019-03-04T05:08:11.104Z,2.30
2019-03-04T05:09:11.098Z,2.60
2019-03-04T05:10:11.088Z,2.70
2019-03-04T05:11:11.076Z,2.40
2019-03-04T05:12:11.091Z,1.90
2019-03-04T05:13:11.073Z,2.90
2019-03-04T05:14:11.037Z,3.10
2019-03-04T05:15:11.027Z,4.20
2019-03-04T05:16:11.033Z,2.70
2019-03-04T05:17:11.011Z,3.00
2019-03-04T05:18:11.016Z,2.30
2019-03-04T05:19:10.983Z,2.80
2019-03-04T05:20:10.969Z,2.30
2019-03-04T05:21:10.975Z,2.10
2019-03-04T05:22:10.946Z,2.90
2019-03-04T05:23:10.960Z,2.10
2019-03-04T05:24:10.928Z,1.30
2019-03-04T05:25:10.912Z,2.30
2019-03-04T05:26:10.899Z,2.30
2019-03-04T05:27:10.903Z,2.10
2019-03-04T05:28:10.905Z,2.60
2019-03-04T05:29:10.873Z,1.90
2019-03-04T05:30:10.863Z,1.80
2019-03-04T05:31:10.853Z,3.00
2019-03-04T05:32:10.832Z,2.60
2019-03-04T05:33:10.848Z,2.30
2019-03-04T05:34:10.809Z,2.10
2019-03-04T05:35:10.831Z,2.60
2019-03-04T05:36:10.787Z,2.20
2019-03-04T05:37:10.797Z,2.80
2019-03-04T05:38:10.819Z,1.90
2019-03-04T05:39:10.752Z,2.80
2019-03-04T05:40:10.746Z,2.50
2019-03-04T05:41:10.774Z,4.30
2019-03-04T05:42:10.721Z,2.20
2019-03-04T05:43:10.736Z,1.70
2019-03-04T05:44:10.699Z,1.90
2019-03-04T05:45:10.686Z,2.80
2019-03-04T05:46:10.688Z,3.60
2019-03-04T05:47:10.666Z,3.90
2019-03-04T05:48:10.680Z,3.60
2019-03-04T05:49:10.640Z,2.40
2019-03-04T05:50:10.634Z,2.60
2019-03-04T05:51:10.622Z,3.60
2019-03-04T05:52:10.620Z,2.70
2019-03-04T05:53:10.630Z,1.90
2019-03-04T05:54:10.587Z,3.30
2019-03-04T05:55:10.580Z,3.50
2019-03-04T05:56:10.564Z,2.90
2019-03-04T05:57:10.575Z,2.60
2019-03-04T05:58:10.574Z,2.00
2019-03-04T05:59:19.318Z,3.60
2019-03-04T06:00:11.516Z,3.20
2019-03-04T06:01:10.507Z,2.20
2019-03-04T06:02:10.519Z,2.10
2019-03-04T06:03:10.482Z,2.00
2019-03-04T06:04:10.498Z,3.60
2019-03-04T06:05:10.470Z,3.70
2019-03-04T06:06:10.448Z,3.70
2019-03-04T06:07:10.443Z,3.10
2019-03-04T06:08:10.466Z,1.70
2019-03-04T06:09:10.450Z,2.70
2019-03-04T06:10:10.406Z,1.90
2019-03-04T06:11:10.392Z,2.90
2019-03-04T06:12:10.389Z,3.50
2019-03-04T06:13:10.374Z,2.10
2019-03-04T06:14:10.386Z,3.90
2019-03-04T06:15:10.346Z,3.80
2019-03-04T06:16:10.336Z,3.80
2019-03-04T06:17:10.327Z,3.60
2019-03-04T06:18:10.312Z,6.10
2019-03-04T06:19:10.332Z,3.80
2019-03-04T06:20:10.329Z,3.40
2019-03-04T06:21:10.279Z,2.30
2019-03-04T06:22:10.276Z,2.20
2019-03-04T06:23:10.257Z,2.40
2019-03-04T06:24:10.268Z,2.20
2019-03-04T06:25:10.232Z,3.60
2019-03-04T06:26:10.224Z,2.60
2019-03-04T06:27:10.211Z,3.20
2019-03-04T06:28:10.225Z,3.30
2019-03-04T06:29:10.228Z,2.20
2019-03-04T06:30:10.176Z,2.70
2019-03-04T06:31:10.167Z,4.00
2019-03-04T06:32:10.152Z,2.20
2019-03-04T06:33:10.142Z,2.10
2019-03-04T06:34:10.161Z,1.80
2019-03-04T06:35:10.139Z,3.10
2019-03-04T06:36:10.109Z,2.30
2019-03-04T06:37:10.098Z,1.70
2019-03-04T06:38:10.093Z,3.40
2019-03-04T06:39:10.092Z,4.20
2019-03-04T06:40:10.137Z,2.40
2019-03-04T06:41:10.055Z,1.90
2019-03-04T06:42:10.046Z,3.20
2019-03-04T06:43:10.029Z,2.50
2019-03-04T06:44:10.026Z,2.40
2019-03-04T06:45:10.031Z,1.70
2019-03-04T06:46:09.995Z,3.10
2019-03-04T06:47:09.987Z,3.00
2019-03-04T06:48:10.025Z,2.80
2019-03-04T06:49:09.970Z,2.00
2019-03-04T06:50:09.976Z,2.70
2019-03-04T06:51:09.973Z,2.40
2019-03-04T06:52:09.937Z,3.20
2019-03-04T06:53:09.919Z,2.40
2019-03-04T06:54:09.905Z,3.80
2019-03-04T06:55:09.933Z,2.80
2019-03-04T06:56:09.894Z,2.70
2019-03-04T06:57:09.875Z,1.90
2019-03-04T06:58:09.858Z,2.10
2019-03-04T06:59:09.850Z,2.60
2019-03-04T07:00:09.862Z,4.70
2019-03-04T07:01:09.832Z,4.00
2019-03-04T07:02:09.819Z,0.90
2019-03-04T07:03:09.839Z,2.70
2019-03-04T07:04:09.797Z,5.00
2019-03-04T07:05:09.809Z,1.70
2019-03-04T07:06:09.769Z,3.00
2019-03-04T07:07:09.763Z,3.00
2019-03-04T07:08:09.769Z,1.90
2019-03-04T07:09:09.745Z,2.00
2019-03-04T07:10:09.757Z,2.00
2019-03-04T07:11:09.717Z,1.30
2019-03-04T07:12:09.701Z,1.00
2019-03-04T07:13:09.754Z,2.00
2019-03-04T07:14:09.698Z,0.80
2019-03-04T07:15:09.699Z,0.70
2019-03-04T07:16:09.659Z,0.90
2019-03-04T07:17:09.643Z,0.90
2019-03-04T07:18:09.672Z,1.50
2019-03-04T07:19:09.642Z,2.40
2019-03-04T07:20:09.659Z,1.80
2019-03-04T07:21:09.601Z,0.90
2019-03-04T07:22:11.094Z,1.90
2019-03-04T07:23:09.579Z,1.20
2019-03-04T07:24:09.572Z,2.60
2019-03-04T07:25:09.563Z,1.80
2019-03-04T07:26:09.580Z,1.30
2019-03-04T07:27:09.533Z,1.70
2019-03-04T07:28:09.520Z,1.20
2019-03-04T07:29:09.512Z,1.50
2019-03-04T07:30:09.501Z,1.30
2019-03-04T07:31:09.513Z,1.20
2019-03-04T07:32:09.475Z,2.50
2019-03-04T07:33:09.480Z,1.20
2019-03-04T07:34:09.453Z,1.20
2019-03-04T07:35:09.440Z,1.50
2019-03-04T07:36:09.459Z,0.60
2019-03-04T07:37:09.421Z,1.10
2019-03-04T07:38:09.408Z,2.10
2019-03-04T07:39:09.399Z,1.60
2019-03-04T07:40:09.418Z,1.30
2019-03-04T07:41:09.397Z,2.60
2019-03-04T07:42:09.364Z,1.00
2019-03-04T07:43:09.353Z,3.10
2019-03-04T07:44:09.339Z,0.80
2019-03-04T07:45:09.349Z,1.40
2019-03-04T07:46:09.348Z,1.60
2019-03-04T07:47:09.364Z,1.10
2019-03-04T07:48:09.293Z,3.00
2019-03-04T07:49:09.287Z,2.40
2019-03-04T07:50:09.271Z,1.80
2019-03-04T07:51:09.303Z,2.60
2019-03-04T07:52:09.277Z,1.50
2019-03-04T07:53:09.242Z,1.30
2019-03-04T07:54:09.248Z,1.30
2019-03-04T07:55:09.216Z,2.30
2019-03-04T07:56:09.230Z,1.90
2019-03-04T07:57:09.194Z,1.50
2019-03-04T07:58:09.183Z,1.30
2019-03-04T07:59:09.170Z,1.80
2019-03-04T08:00:09.167Z,1.10
2019-03-04T08:01:09.183Z,2.00
2019-03-04T08:02:09.159Z,0.70
2019-03-04T08:03:09.558Z,1.00
2019-03-04T08:04:09.113Z,1.00
2019-03-04T08:05:09.104Z,2.00
2019-03-04T08:06:09.157Z,3.70
2019-03-04T08:07:09.082Z,1.20
2019-03-04T08:08:09.074Z,2.20
2019-03-04T08:09:09.072Z,1.00
2019-03-04T08:10:09.060Z,2.60
2019-03-04T08:11:09.063Z,0.90
2019-03-04T08:12:09.031Z,0.70
2019-03-04T08:13:09.020Z,0.90
2019-03-04T08:14:09.058Z,2.00
2019-03-04T08:15:08.999Z,2.00
2019-03-04T08:16:08.991Z,1.80
2019-03-04T08:17:08.996Z,3.70
2019-03-04T08:18:08.958Z,2.50
2019-03-04T08:19:08.954Z,0.80
2019-03-04T08:20:08.934Z,2.50
2019-03-04T08:21:08.931Z,2.50
2019-03-04T08:22:08.939Z,1.70
2019-03-04T08:23:10.153Z,3.00
2019-03-04T08:24:08.906Z,2.10
2019-03-04T08:25:08.879Z,1.60
2019-03-04T08:26:08.872Z,1.60
2019-03-04T08:27:08.883Z,2.20
2019-03-04T08:28:08.887Z,3.10
2019-03-04T08:29:08.831Z,1.90
2019-03-04T08:30:08.824Z,1.70
2019-03-04T08:31:08.810Z,1.70
2019-03-04T08:32:08.827Z,3.40
2019-03-04T08:33:08.792Z,1.90
2019-03-04T08:34:09.405Z,2.80
2019-03-04T08:35:08.777Z,2.80
2019-03-04T08:36:08.758Z,1.50
2019-03-04T08:37:08.769Z,1.40
2019-03-04T08:38:08.740Z,2.50
2019-03-04T08:39:08.732Z,2.30
2019-03-04T08:40:08.708Z,2.30
2019-03-04T08:41:08.702Z,1.10
2019-03-04T08:42:08.713Z,1.90
2019-03-04T08:43:08.678Z,3.20
2019-03-04T08:44:08.671Z,3.40
2019-03-04T08:45:08.789Z,2.20
2019-03-04T08:46:08.722Z,1.80
2019-03-04T08:47:08.655Z,2.50
2019-03-04T08:48:08.684Z,2.60
2019-03-04T08:49:08.759Z,3.20
2019-03-04T08:50:09.601Z,2.80
2019-03-04T08:51:08.586Z,2.50
2019-03-04T08:52:08.599Z,1.90
2019-03-04T08:53:08.565Z,2.60
2019-03-04T08:54:08.554Z,1.60
2019-03-04T08:55:08.542Z,2.20
2019-03-04T08:56:08.541Z,3.30
2019-03-04T08:57:08.545Z,2.40
2019-03-04T08:58:08.508Z,2.00
2019-03-04T08:59:08.499Z,1.90
2019-03-04T09:00:08.492Z,4.80
2019-03-04T09:01:08.499Z,2.00
2019-03-04T09:02:08.495Z,2.10
2019-03-04T09:03:08.452Z,3.40
2019-03-04T09:04:08.445Z,3.30
2019-03-04T09:05:08.426Z,2.30
2019-03-04T09:06:08.455Z,2.40
2019-03-04T09:07:08.430Z,3.30
2019-03-04T09:08:08.397Z,4.00
2019-03-04T09:09:08.383Z,3.00
2019-03-04T09:10:08.372Z,2.30
2019-03-04T09:11:08.360Z,3.60
2019-03-04T09:12:08.374Z,2.50
2019-03-04T09:13:08.347Z,1.70
2019-03-04T09:14:08.332Z,3.30
2019-03-04T09:15:08.324Z,4.20
2019-03-04T09:16:08.307Z,2.50
2019-03-04T09:17:10.726Z,2.60
2019-03-04T09:18:08.313Z,2.90
2019-03-04T09:19:08.289Z,3.60
2019-03-04T09:20:08.257Z,4.30
2019-03-04T09:21:08.260Z,3.00
2019-03-04T09:22:08.238Z,4.80
2019-03-04T09:23:08.251Z,3.80
2019-03-04T09:24:08.214Z,3.30
2019-03-04T09:25:08.223Z,4.20
2019-03-04T09:26:08.196Z,4.70
2019-03-04T09:27:08.177Z,3.40
2019-03-04T09:28:08.225Z,2.70
2019-03-04T09:29:08.159Z,3.20
2019-03-04T09:30:08.144Z,3.60
2019-03-04T09:31:08.142Z,5.30
2019-03-04T09:32:08.128Z,4.00
2019-03-04T09:33:08.138Z,4.00
2019-03-04T09:34:08.099Z,4.50
2019-03-04T09:35:08.092Z,3.70
2019-03-04T09:36:08.079Z,4.00
2019-03-04T09:37:08.071Z,4.10
2019-03-04T09:38:08.086Z,4.50
2019-03-04T09:39:08.048Z,6.60
2019-03-04T09:40:08.051Z,3.80
2019-03-04T09:41:08.025Z,4.70
2019-03-04T09:42:08.009Z,6.70
2019-03-04T09:43:08.056Z,5.30
2019-03-04T09:44:07.988Z,4.50
2019-03-04T09:45:07.979Z,4.60
2019-03-04T09:46:07.963Z,4.60
2019-03-04T09:47:07.951Z,4.20
2019-03-04T09:48:07.984Z,4.90
2019-03-04T09:49:07.928Z,5.50
2019-03-04T09:50:07.945Z,4.60
2019-03-04T09:51:07.919Z,4.20
2019-03-04T09:52:07.895Z,3.90
2019-03-04T09:53:07.932Z,6.80
2019-03-04T09:54:07.882Z,5.50
2019-03-04T09:55:07.865Z,6.70
2019-03-04T09:56:07.853Z,6.80
2019-03-04T09:57:07.842Z,5.10
2019-03-04T09:58:07.852Z,4.80
2019-03-04T09:59:07.816Z,6.20
2019-03-04T10:00:07.805Z,6.00
2019-03-04T10:01:07.794Z,3.90
2019-03-04T10:02:07.785Z,3.40
2019-03-04T10:03:07.824Z,6.20
2019-03-04T10:04:07.761Z,6.00
2019-03-04T10:05:07.749Z,7.30
2019-03-04T10:06:07.738Z,8.00
2019-03-04T10:07:07.729Z,3.10
2019-03-04T10:08:07.741Z,4.60
2019-03-04T10:09:07.712Z,5.50
2019-03-04T10:10:07.712Z,6.10
2019-03-04T10:11:07.685Z,7.70
2019-03-04T10:12:07.704Z,6.10
2019-03-04T10:13:07.659Z,7.50
2019-03-04T10:14:07.673Z,5.50
2019-03-04T10:15:08.701Z,4.80
2019-03-04T10:16:07.658Z,6.50
2019-03-04T10:17:07.611Z,5.30
2019-03-04T10:18:07.604Z,5.00
2019-03-04T10:19:07.616Z,5.10
2019-03-04T10:20:07.583Z,6.50
2019-03-04T10:21:07.570Z,5.20
2019-03-04T10:22:07.564Z,6.50
2019-03-04T10:23:07.546Z,5.90
2019-03-04T10:24:07.563Z,7.80
2019-03-04T10:25:07.523Z,6.80
2019-03-04T10:26:07.511Z,6.70
2019-03-04T10:27:07.503Z,4.20
2019-03-04T10:28:07.497Z,8.50
2019-03-04T10:29:07.503Z,6.20
2019-03-04T10:30:07.479Z,6.40
2019-03-04T10:31:07.454Z,7.90
2019-03-04T10:32:07.443Z,5.70
2019-03-04T10:33:07.435Z,8.00
2019-03-04T10:34:07.449Z,6.80
2019-03-04T10:35:07.424Z,5.70
2019-03-04T10:36:07.403Z,5.90
2019-03-04T10:37:07.414Z,6.60
2019-03-04T10:38:07.376Z,6.90
2019-03-04T10:39:07.387Z,6.30
2019-03-04T10:40:07.353Z,6.40
2019-03-04T10:41:07.342Z,6.90
2019-03-04T10:42:07.332Z,4.30
2019-03-04T10:43:07.327Z,6.70
2019-03-04T10:44:07.332Z,5.20
2019-03-04T10:45:07.338Z,5.30
2019-03-04T10:46:07.285Z,5.30
2019-03-04T10:47:07.273Z,6.00
2019-03-04T10:48:07.266Z,4.80
2019-03-04T10:49:07.251Z,5.30
2019-03-04T10:50:07.274Z,4.90
2019-03-04T10:51:07.240Z,4.70
2019-03-04T10:52:07.216Z,5.20
2019-03-04T10:53:07.233Z,4.60
2019-03-04T10:54:07.203Z,4.90
2019-03-04T10:55:07.209Z,4.10
2019-03-04T10:56:07.172Z,4.80
2019-03-04T10:57:07.163Z,4.50
2019-03-04T10:58:07.151Z,4.90
2019-03-04T10:59:07.162Z,3.80
2019-03-04T11:00:07.153Z,5.10
2019-03-04T11:01:07.119Z,4.20
2019-03-04T11:02:07.103Z,4.70
2019-03-04T11:03:07.101Z,6.10
2019-03-04T11:04:07.080Z,4.10
2019-03-04T11:05:07.133Z,4.20
2019-03-04T11:06:07.059Z,4.70
2019-03-04T11:07:07.051Z,2.80
2019-03-04T11:08:07.036Z,4.20
2019-03-04T11:09:07.025Z,4.70
2019-03-04T11:10:07.045Z,5.70
2019-03-04T11:11:07.011Z,4.90
2019-03-04T11:12:06.991Z,5.20
2019-03-04T11:13:06.981Z,5.50
2019-03-04T11:14:06.969Z,3.20
2019-03-04T11:15:06.986Z,3.60
2019-03-04T11:16:06.952Z,4.10
2019-03-04T11:17:06.937Z,5.50
2019-03-04T11:18:06.924Z,4.20
2019-03-04T11:19:06.948Z,3.60
2019-03-04T11:20:06.928Z,5.80
2019-03-04T11:21:06.889Z,5.40
2019-03-04T11:22:06.876Z,6.30
2019-03-04T11:23:06.865Z,3.80
2019-03-04T11:24:06.854Z,4.10
2019-03-04T11:25:06.868Z,4.40
2019-03-04T11:26:06.843Z,3.80
2019-03-04T11:27:06.829Z,3.30
2019-03-04T11:28:06.810Z,4.30
2019-03-04T11:29:06.801Z,4.20
2019-03-04T11:30:06.843Z,3.20
2019-03-04T11:31:06.781Z,3.20
2019-03-04T11:32:06.767Z,3.50
2019-03-04T11:33:06.755Z,4.50
2019-03-04T11:34:06.751Z,5.20
2019-03-04T11:35:06.746Z,4.00
2019-03-04T11:36:06.745Z,3.40
2019-03-04T11:37:06.710Z,2.80
2019-03-04T11:38:06.700Z,3.00
2019-03-04T11:39:06.687Z,3.70
2019-03-04T11:40:06.680Z,1.80
2019-03-04T11:41:06.698Z,3.10
2019-03-04T11:42:06.681Z,2.90
2019-03-04T11:43:06.644Z,2.50
2019-03-04T11:44:06.627Z,2.60
2019-03-04T11:45:06.628Z,1.90
2019-03-04T11:46:06.641Z,8.10
2019-03-04T11:47:06.598Z,3.30
2019-03-04T11:48:06.585Z,2.60
2019-03-04T11:49:06.580Z,2.70
2019-03-04T11:50:06.584Z,3.30
2019-03-04T11:51:06.577Z,4.30
2019-03-04T11:52:06.537Z,3.30
2019-03-04T11:53:06.551Z,1.90
2019-03-04T11:54:06.524Z,6.60
2019-03-04T11:55:06.505Z,3.30
2019-03-04T11:56:06.532Z,2.60
2019-03-04T11:57:06.484Z,1.90
2019-03-04T11:58:06.468Z,1.60
2019-03-04T11:59:06.471Z,1.20
2019-03-04T12:00:06.446Z,1.70
2019-03-04T12:01:06.471Z,2.60
2019-03-04T12:02:06.428Z,2.60
2019-03-04T12:03:06.415Z,2.10
2019-03-04T12:04:06.408Z,2.20
2019-03-04T12:05:06.393Z,2.20
2019-03-04T12:06:06.424Z,2.30
2019-03-04T12:07:06.370Z,2.50
2019-03-04T12:08:06.358Z,2.80
2019-03-04T12:09:06.377Z,3.60
2019-03-04T12:10:06.334Z,2.40
2019-03-04T12:11:06.352Z,1.10
2019-03-04T12:12:06.312Z,1.60
2019-03-04T12:13:06.305Z,2.10
2019-03-04T12:14:06.346Z,3.60
2019-03-04T12:15:06.290Z,2.60
2019-03-04T12:16:06.293Z,2.40
2019-03-04T12:17:06.264Z,2.50
2019-03-04T12:18:06.250Z,2.40
2019-03-04T12:19:06.239Z,2.00
2019-03-04T12:20:06.222Z,3.60
2019-03-04T12:21:06.213Z,2.20
2019-03-04T12:22:06.222Z,3.20
2019-03-04T12:23:06.187Z,2.20
2019-03-04T12:24:06.203Z,2.50
2019-03-04T12:25:06.164Z,1.70
2019-03-04T12:26:06.161Z,5.40
2019-03-04T12:27:06.167Z,4.60
2019-03-04T12:28:06.133Z,5.20
2019-03-04T12:29:06.118Z,3.20
2019-03-04T12:30:06.108Z,3.30
2019-03-04T12:31:06.098Z,2.80
2019-03-04T12:32:06.118Z,1.80
2019-03-04T12:33:06.074Z,2.60
2019-03-04T12:34:06.068Z,2.90
2019-03-04T12:35:06.051Z,0.60
2019-03-04T12:36:06.039Z,2.00
2019-03-04T12:37:06.056Z,1.50
2019-03-04T12:38:06.020Z,1.40
2019-03-04T12:39:06.015Z,1.10
2019-03-04T12:40:06.053Z,1.80
2019-03-04T12:41:05.984Z,1.90
2019-03-04T12:42:06.012Z,2.00
2019-03-04T12:43:05.961Z,1.00
2019-03-04T12:44:05.952Z,1.20
2019-03-04T12:45:05.960Z,1.90
2019-03-04T12:46:05.954Z,1.80
2019-03-04T12:47:05.964Z,0.50
2019-03-04T12:48:05.905Z,1.40
2019-03-04T12:49:05.894Z,1.10
2019-03-04T12:50:05.896Z,1.40
2019-03-04T12:51:05.874Z,1.30
2019-03-04T12:52:05.895Z,1.00
2019-03-04T12:53:05.856Z,1.00
2019-03-04T12:54:05.840Z,1.60
2019-03-04T12:55:05.836Z,1.90
2019-03-04T12:56:05.815Z,1.00
2019-03-04T12:57:05.830Z,2.30
2019-03-04T12:58:05.795Z,1.60
2019-03-04T12:59:05.780Z,0.90
2019-03-04T13:00:05.781Z,1.10
2019-03-04T13:01:05.759Z,1.30
2019-03-04T13:02:05.776Z,1.40
2019-03-04T13:03:05.736Z,0.50
2019-03-04T13:04:05.727Z,1.10
2019-03-04T13:05:05.712Z,1.80
2019-03-04T13:06:05.713Z,0.80
2019-03-04T13:07:05.744Z,2.00
2019-03-04T13:08:05.695Z,1.10
2019-03-04T13:09:14.227Z,2.90
2019-03-04T13:10:06.660Z,1.60
2019-03-04T13:11:05.646Z,1.20
2019-03-04T13:12:05.638Z,1.30
2019-03-04T13:13:05.659Z,1.70
2019-03-04T13:14:05.615Z,1.70
2019-03-04T13:15:05.607Z,2.40
2019-03-04T13:16:05.600Z,1.90
2019-03-04T13:17:05.583Z,2.20
2019-03-04T13:18:05.595Z,1.80